Terminal Aerodrome Forecast
Issued by NWS Albany, NY

Home | Current Version | Previous Version | Text Only | Print | Product List | Glossary On
Versions: 1 2 3 4 5 6 7 8 9 10 11 12 13 14 15 16 17 18 19 20 21 22 23 24 25 26 27
000
FTUS41 KALY 011723
TAFALB
TAF
KALB 011723Z 0118/0218 19010KT P6SM VCSH BKN035 BKN060
      TEMPO 0119/0121 5SM -SHRA BR BKN030 OVC040
     FM012100 26010KT P6SM BKN040
     FM020100 26005KT P6SM SCT040
     FM020500 26004KT P6SM SKC
     FM021400 29008KT P6SM SCT040=

USA.gov is the U.S. government's official web portal to all federal, state and local government web resources and services.